Automated Weather Station

Magsaysay, Infanta, Quezon


Readings

as of November 11, 2016 04:01 PM
Wind Speed
3.4 mm
Rainfall Amount
0.14 mm
Rainfall Intensity
11.3 mm
Air Temperature
mm
Wind Direction
96 mm
Air Humidity
97.7 mm

Data Source: PREDICT (Advanced Science and Technology Institute)

12 HOUR DATA

PREVIOUS DATA

From
To
DateTime Wind Speed Rain Amount Rain Intensity Air Temperature Air Pressure Wind Direction Air Humidity
October 27, 2013 04:00 AM 0 0 mm 0 19.1 930.83 0 93.9
October 27, 2013 03:45 AM 4.7 0 mm 0 19.1 930.83 37 94.1
October 27, 2013 03:30 AM 9.1 0 mm 0 19.4 930.83 86 94.2
October 27, 2013 03:15 AM 4.9 0 mm 0 19.4 930.7 82 93.8
October 27, 2013 03:00 AM 6.8 0 mm 0 19.3 930.7 32 93
October 27, 2013 02:45 AM 12.4 0.02 mm 0 19.4 930.83 57 93.7
October 27, 2013 02:30 AM 0 0 mm 0 19.4 930.83 0 93.9
October 27, 2013 02:15 AM 0 0.03 mm 0.3 19.4 930.83 0 94.5
October 27, 2013 02:00 AM 12.3 0 mm 0 19.4 931.1 46 94.7
October 27, 2013 01:45 AM 9 0 mm 0 19.5 931.1 66 94.8
October 27, 2013 01:30 AM 3.5 0 mm 0 19.6 931.23 355 94.8
October 27, 2013 01:15 AM 0 0 mm 0 19.7 931.37 0 94.8
October 27, 2013 01:00 AM 0 0 mm 0 19.6 931.63 0 94.7
October 27, 2013 12:45 AM 0 0 mm 0 19.5 931.63 0 94.6
October 27, 2013 12:30 AM 0 0.02 mm 0 19.8 932.03 0 94.6
October 27, 2013 12:15 AM 9.5 0.16 mm 0 19.8 932.17 3 94.4
October 27, 2013 12:00 AM 7.8 0.84 mm 6.2 20.1 932.43 89 94.3
October 26, 2013 11:30 PM 0 0 mm 0 20 932.7 0 91.8
October 26, 2013 11:15 PM 0 0 mm 0 19.9 932.83 0 92.3
October 26, 2013 11:00 PM 0 0 mm 0 19.8 932.97 0 92.4
October 26, 2013 10:45 PM 7.2 0 mm 0 19.8 933.23 21 93.6
October 26, 2013 10:30 PM 0 0 mm 0 20 933.37 0 94
October 26, 2013 10:15 PM 10.3 0 mm 0 20 933.5 87 93.8
October 26, 2013 10:00 PM 4.8 0 mm 0 20.1 933.37 89 93.5
October 26, 2013 09:45 PM 9.9 0 mm 0 19.9 933.23 11 93.1
October 26, 2013 09:30 PM 0 0 mm 0 19.9 933.23 0 93.7
October 26, 2013 09:15 PM 0 0 mm 0 19.9 933.1 0 94
October 26, 2013 09:00 PM 4.5 0 mm 0 20 932.97 70 94.3
October 26, 2013 08:45 PM 9.1 0 mm 0 20 933.1 48 94.3
October 26, 2013 08:30 PM 0 0 mm 0 19.9 933.23 0 94.3